Portada
METAR-TAF:

METAR-TAF

Aeroports :

Palmas, Tocantins, Brasil

latitud: 10-17-24S, longitud: 048-21-28W, altitud: 236 m

Observació

L'informe es va fer fa 1 hora i 1 minuts, a les 01:00 UTC
Vent 2 kt del Est
Temperatura 23°C
Humitat 73%
Pressió 1014 hPa
Visibilitat 10 km o més
sense núvols per sota de 1500 mi sense presència de cumulonimbus.

METAR: SBPJ 160100Z 10002KT CAVOK 23/18 Q1014

Hora: 23:01 (02:01 UTC)

Pronòstic

L'informe es va fer fa 4 hores i 1 minuts, a les 22:00 UTC
Pronòstic vàlid del 16 a les 00 UTC al 16 a les 12 UTC
Vent 3 kt del Sud-Est
Visibilitat 10 km o més
sense núvols per sota de 1500 mi sense presència de cumulonimbus.

TAF: SBPJ 152200Z 1600/1612 13003KT CAVOK TN19/1608Z TX23/1611Z RMK PCQ

Observacions i pronòstics meteorològics de més de 4000 aeroports (METAR i TAF).

Les estacions disponibles són els punts grocs i vermells al mapa.

Posi el ratolí al punt desitjat per veure el nom de l'estació.

Feu clic per veure les observacions i els pronòstics meteorològics.

Per canviar el mapa: feu clic els botons verds amb una creu de color negre per apropar; al botó verd amb un guió per allunyar la imatge; o en les fletxes verdes per a mapes adjacents.


METAR-TAF: